sensor_id;sensor_type;location;lat;lon;timestamp;temperature;humidity
85532;SHT35;75970;52.122;5.406;2024-02-21T00:01:15;9.99;81.30
85532;SHT35;75970;52.122;5.406;2024-02-21T00:03:43;9.99;81.10
85532;SHT35;75970;52.122;5.406;2024-02-21T00:06:10;9.99;81.16
85532;SHT35;75970;52.122;5.406;2024-02-21T00:08:37;9.98;81.15
85532;SHT35;75970;52.122;5.406;2024-02-21T00:11:05;9.95;81.33
85532;SHT35;75970;52.122;5.406;2024-02-21T00:13:33;9.96;81.09
85532;SHT35;75970;52.122;5.406;2024-02-21T00:16:00;9.97;80.89
85532;SHT35;75970;52.122;5.406;2024-02-21T00:18:28;9.97;80.98
85532;SHT35;75970;52.122;5.406;2024-02-21T00:20:56;9.93;81.19
85532;SHT35;75970;52.122;5.406;2024-02-21T00:23:23;9.93;81.17
85532;SHT35;75970;52.122;5.406;2024-02-21T00:25:50;9.95;81.02
85532;SHT35;75970;52.122;5.406;2024-02-21T00:28:18;9.93;81.24
85532;SHT35;75970;52.122;5.406;2024-02-21T00:30:45;9.92;81.29
85532;SHT35;75970;52.122;5.406;2024-02-21T00:33:14;9.94;81.13
85532;SHT35;75970;52.122;5.406;2024-02-21T00:35:42;9.93;81.19
85532;SHT35;75970;52.122;5.406;2024-02-21T00:38:09;9.94;81.28
85532;SHT35;75970;52.122;5.406;2024-02-21T00:40:36;9.98;80.95
85532;SHT35;75970;52.122;5.406;2024-02-21T00:43:04;9.96;81.21
85532;SHT35;75970;52.122;5.406;2024-02-21T00:45:31;9.93;81.36
85532;SHT35;75970;52.122;5.406;2024-02-21T00:47:58;9.93;81.53
85532;SHT35;75970;52.122;5.406;2024-02-21T00:50:25;9.92;81.46
85532;SHT35;75970;52.122;5.406;2024-02-21T00:52:53;9.93;81.55
85532;SHT35;75970;52.122;5.406;2024-02-21T00:55:20;9.92;81.42
85532;SHT35;75970;52.122;5.406;2024-02-21T00:57:47;9.95;81.44
85532;SHT35;75970;52.122;5.406;2024-02-21T01:00:14;9.95;81.25
85532;SHT35;75970;52.122;5.406;2024-02-21T01:02:42;9.93;81.43
85532;SHT35;75970;52.122;5.406;2024-02-21T01:05:09;9.95;81.51
85532;SHT35;75970;52.122;5.406;2024-02-21T01:07:36;9.98;81.34
85532;SHT35;75970;52.122;5.406;2024-02-21T01:10:04;10.01;81.33
85532;SHT35;75970;52.122;5.406;2024-02-21T01:12:31;10.02;81.09
85532;SHT35;75970;52.122;5.406;2024-02-21T01:14:58;10.04;81.26
85532;SHT35;75970;52.122;5.406;2024-02-21T01:17:26;10.07;80.96
85532;SHT35;75970;52.122;5.406;2024-02-21T01:19:53;10.09;80.89
85532;SHT35;75970;52.122;5.406;2024-02-21T01:22:20;10.10;80.89
85532;SHT35;75970;52.122;5.406;2024-02-21T01:24:47;10.11;80.83
85532;SHT35;75970;52.122;5.406;2024-02-21T01:27:14;10.12;80.81
85532;SHT35;75970;52.122;5.406;2024-02-21T01:29:42;10.14;80.58
85532;SHT35;75970;52.122;5.406;2024-02-21T01:32:10;10.14;80.61
85532;SHT35;75970;52.122;5.406;2024-02-21T01:34:37;10.14;80.70
85532;SHT35;75970;52.122;5.406;2024-02-21T01:37:04;10.13;80.49
85532;SHT35;75970;52.122;5.406;2024-02-21T01:39:34;10.14;80.40
85532;SHT35;75970;52.122;5.406;2024-02-21T01:42:01;10.11;80.70
85532;SHT35;75970;52.122;5.406;2024-02-21T01:44:28;10.10;80.58
85532;SHT35;75970;52.122;5.406;2024-02-21T01:46:56;10.11;80.63
85532;SHT35;75970;52.122;5.406;2024-02-21T01:49:24;10.08;80.67
85532;SHT35;75970;52.122;5.406;2024-02-21T01:51:52;10.09;80.73
85532;SHT35;75970;52.122;5.406;2024-02-21T01:54:20;10.07;80.61
85532;SHT35;75970;52.122;5.406;2024-02-21T01:56:48;10.07;80.93
85532;SHT35;75970;52.122;5.406;2024-02-21T01:59:16;10.07;81.08
85532;SHT35;75970;52.122;5.406;2024-02-21T02:01:46;10.07;80.94
85532;SHT35;75970;52.122;5.406;2024-02-21T02:04:14;10.08;81.02
85532;SHT35;75970;52.122;5.406;2024-02-21T02:06:41;10.09;80.94
85532;SHT35;75970;52.122;5.406;2024-02-21T02:09:08;10.09;80.85
85532;SHT35;75970;52.122;5.406;2024-02-21T02:11:36;10.10;80.85
85532;SHT35;75970;52.122;5.406;2024-02-21T02:14:03;10.10;80.77
85532;SHT35;75970;52.122;5.406;2024-02-21T02:16:30;10.11;80.75
85532;SHT35;75970;52.122;5.406;2024-02-21T02:18:57;10.11;80.74
85532;SHT35;75970;52.122;5.406;2024-02-21T02:21:37;10.10;80.75
85532;SHT35;75970;52.122;5.406;2024-02-21T02:24:06;10.09;80.90
85532;SHT35;75970;52.122;5.406;2024-02-21T02:26:34;10.08;80.87
85532;SHT35;75970;52.122;5.406;2024-02-21T02:29:01;10.09;80.89
85532;SHT35;75970;52.122;5.406;2024-02-21T02:31:29;10.07;80.82
85532;SHT35;75970;52.122;5.406;2024-02-21T02:33:56;10.09;80.66
85532;SHT35;75970;52.122;5.406;2024-02-21T02:36:24;10.10;80.66
85532;SHT35;75970;52.122;5.406;2024-02-21T02:38:51;10.10;80.63
85532;SHT35;75970;52.122;5.406;2024-02-21T02:41:18;10.11;80.61
85532;SHT35;75970;52.122;5.406;2024-02-21T02:43:45;10.11;80.50
85532;SHT35;75970;52.122;5.406;2024-02-21T02:46:13;10.11;80.32
85532;SHT35;75970;52.122;5.406;2024-02-21T02:48:40;10.11;80.54
85532;SHT35;75970;52.122;5.406;2024-02-21T02:51:07;10.12;80.55
85532;SHT35;75970;52.122;5.406;2024-02-21T02:53:35;10.12;80.57
85532;SHT35;75970;52.122;5.406;2024-02-21T02:56:02;10.10;80.56
85532;SHT35;75970;52.122;5.406;2024-02-21T02:58:29;10.10;80.75
85532;SHT35;75970;52.122;5.406;2024-02-21T03:00:56;10.10;80.53
85532;SHT35;75970;52.122;5.406;2024-02-21T03:03:24;10.10;80.65
85532;SHT35;75970;52.122;5.406;2024-02-21T03:05:51;10.10;80.41
85532;SHT35;75970;52.122;5.406;2024-02-21T03:08:18;10.07;80.64
85532;SHT35;75970;52.122;5.406;2024-02-21T03:10:45;10.06;80.61
85532;SHT35;75970;52.122;5.406;2024-02-21T03:13:12;10.07;80.43
85532;SHT35;75970;52.122;5.406;2024-02-21T03:15:39;10.04;80.63
85532;SHT35;75970;52.122;5.406;2024-02-21T03:18:07;10.04;80.78
85532;SHT35;75970;52.122;5.406;2024-02-21T03:20:34;10.03;80.87
85532;SHT35;75970;52.122;5.406;2024-02-21T03:23:01;10.03;80.78
85532;SHT35;75970;52.122;5.406;2024-02-21T03:25:28;10.03;80.85
85532;SHT35;75970;52.122;5.406;2024-02-21T03:27:55;10.04;80.74
85532;SHT35;75970;52.122;5.406;2024-02-21T03:30:23;10.01;80.73
85532;SHT35;75970;52.122;5.406;2024-02-21T03:32:50;10.01;80.89
85532;SHT35;75970;52.122;5.406;2024-02-21T03:35:18;9.98;81.16
85532;SHT35;75970;52.122;5.406;2024-02-21T03:37:45;9.97;81.27
85532;SHT35;75970;52.122;5.406;2024-02-21T03:40:12;9.99;81.02
85532;SHT35;75970;52.122;5.406;2024-02-21T03:42:40;9.98;81.29
85532;SHT35;75970;52.122;5.406;2024-02-21T03:45:07;9.96;81.31
85532;SHT35;75970;52.122;5.406;2024-02-21T03:47:35;9.98;81.20
85532;SHT35;75970;52.122;5.406;2024-02-21T03:50:02;9.98;81.08
85532;SHT35;75970;52.122;5.406;2024-02-21T03:52:30;9.99;81.03
85532;SHT35;75970;52.122;5.406;2024-02-21T03:54:57;9.98;81.04
85532;SHT35;75970;52.122;5.406;2024-02-21T03:57:24;9.98;81.08
85532;SHT35;75970;52.122;5.406;2024-02-21T03:59:52;9.96;81.26
85532;SHT35;75970;52.122;5.406;2024-02-21T04:02:19;9.98;80.78
85532;SHT35;75970;52.122;5.406;2024-02-21T04:04:46;9.96;80.86
85532;SHT35;75970;52.122;5.406;2024-02-21T04:07:15;9.96;80.87
85532;SHT35;75970;52.122;5.406;2024-02-21T04:09:42;9.95;80.80
85532;SHT35;75970;52.122;5.406;2024-02-21T04:12:09;9.97;80.58
85532;SHT35;75970;52.122;5.406;2024-02-21T04:14:37;9.97;80.68
85532;SHT35;75970;52.122;5.406;2024-02-21T04:17:04;9.96;80.46
85532;SHT35;75970;52.122;5.406;2024-02-21T04:19:32;9.94;80.71
85532;SHT35;75970;52.122;5.406;2024-02-21T04:22:01;9.90;81.04
85532;SHT35;75970;52.122;5.406;2024-02-21T04:24:28;9.88;81.09
85532;SHT35;75970;52.122;5.406;2024-02-21T04:26:55;9.85;81.29
85532;SHT35;75970;52.122;5.406;2024-02-21T04:29:22;9.81;81.35
85532;SHT35;75970;52.122;5.406;2024-02-21T04:31:50;9.82;81.28
85532;SHT35;75970;52.122;5.406;2024-02-21T04:34:17;9.80;81.14
85532;SHT35;75970;52.122;5.406;2024-02-21T04:36:45;9.79;81.40
85532;SHT35;75970;52.122;5.406;2024-02-21T04:39:12;9.79;81.26
85532;SHT35;75970;52.122;5.406;2024-02-21T04:41:39;9.80;81.38
85532;SHT35;75970;52.122;5.406;2024-02-21T04:44:06;9.80;81.31
85532;SHT35;75970;52.122;5.406;2024-02-21T04:46:33;9.79;81.38
85532;SHT35;75970;52.122;5.406;2024-02-21T04:49:01;9.78;81.34
85532;SHT35;75970;52.122;5.406;2024-02-21T04:51:28;9.77;81.28
85532;SHT35;75970;52.122;5.406;2024-02-21T04:53:55;9.75;81.43
85532;SHT35;75970;52.122;5.406;2024-02-21T04:56:22;9.72;81.36
85532;SHT35;75970;52.122;5.406;2024-02-21T04:58:49;9.71;81.39
85532;SHT35;75970;52.122;5.406;2024-02-21T05:01:17;9.69;81.63
85532;SHT35;75970;52.122;5.406;2024-02-21T05:03:44;9.68;81.78
85532;SHT35;75970;52.122;5.406;2024-02-21T05:06:11;9.68;81.66
85532;SHT35;75970;52.122;5.406;2024-02-21T05:08:40;9.68;81.67
85532;SHT35;75970;52.122;5.406;2024-02-21T05:11:07;9.69;81.80
85532;SHT35;75970;52.122;5.406;2024-02-21T05:13:34;9.71;81.67
85532;SHT35;75970;52.122;5.406;2024-02-21T05:16:02;9.72;81.68
85532;SHT35;75970;52.122;5.406;2024-02-21T05:18:29;9.73;81.30
85532;SHT35;75970;52.122;5.406;2024-02-21T05:20:57;9.71;81.63
85532;SHT35;75970;52.122;5.406;2024-02-21T05:23:24;9.72;81.68
85532;SHT35;75970;52.122;5.406;2024-02-21T05:25:51;9.72;81.63
85532;SHT35;75970;52.122;5.406;2024-02-21T05:28:19;9.74;81.41
85532;SHT35;75970;52.122;5.406;2024-02-21T05:30:46;9.75;81.30
85532;SHT35;75970;52.122;5.406;2024-02-21T05:33:13;9.77;81.27
85532;SHT35;75970;52.122;5.406;2024-02-21T05:35:48;9.76;81.30
85532;SHT35;75970;52.122;5.406;2024-02-21T05:38:16;9.77;80.97
85532;SHT35;75970;52.122;5.406;2024-02-21T05:40:45;9.77;81.01
85532;SHT35;75970;52.122;5.406;2024-02-21T05:43:13;9.77;81.05
85532;SHT35;75970;52.122;5.406;2024-02-21T05:45:40;9.72;81.31
85532;SHT35;75970;52.122;5.406;2024-02-21T05:48:07;9.71;81.38
85532;SHT35;75970;52.122;5.406;2024-02-21T05:50:34;9.71;81.32
85532;SHT35;75970;52.122;5.406;2024-02-21T05:53:02;9.71;81.20
85532;SHT35;75970;52.122;5.406;2024-02-21T05:55:30;9.71;81.34
85532;SHT35;75970;52.122;5.406;2024-02-21T05:57:57;9.70;81.52
85532;SHT35;75970;52.122;5.406;2024-02-21T06:00:24;9.69;81.45
85532;SHT35;75970;52.122;5.406;2024-02-21T06:02:52;9.71;81.47
85532;SHT35;75970;52.122;5.406;2024-02-21T06:05:19;9.71;81.34
85532;SHT35;75970;52.122;5.406;2024-02-21T06:07:46;9.68;81.44
85532;SHT35;75970;52.122;5.406;2024-02-21T06:10:14;9.68;81.56
85532;SHT35;75970;52.122;5.406;2024-02-21T06:12:41;9.69;81.55
85532;SHT35;75970;52.122;5.406;2024-02-21T06:15:09;9.71;81.53
85532;SHT35;75970;52.122;5.406;2024-02-21T06:17:36;9.70;81.55
85532;SHT35;75970;52.122;5.406;2024-02-21T06:20:03;9.69;81.63
85532;SHT35;75970;52.122;5.406;2024-02-21T06:22:31;9.70;81.62
85532;SHT35;75970;52.122;5.406;2024-02-21T06:24:59;9.71;81.57
85532;SHT35;75970;52.122;5.406;2024-02-21T06:27:26;9.71;81.73
85532;SHT35;75970;52.122;5.406;2024-02-21T06:29:53;9.69;81.72
85532;SHT35;75970;52.122;5.406;2024-02-21T06:32:20;9.69;81.76
85532;SHT35;75970;52.122;5.406;2024-02-21T06:34:47;9.69;81.69
85532;SHT35;75970;52.122;5.406;2024-02-21T06:37:15;9.68;81.66
85532;SHT35;75970;52.122;5.406;2024-02-21T06:39:42;9.68;81.39
85532;SHT35;75970;52.122;5.406;2024-02-21T06:42:09;9.64;81.65
85532;SHT35;75970;52.122;5.406;2024-02-21T06:44:36;9.64;81.68
85532;SHT35;75970;52.122;5.406;2024-02-21T06:47:07;9.65;81.53
85532;SHT35;75970;52.122;5.406;2024-02-21T06:49:35;9.63;81.78
85532;SHT35;75970;52.122;5.406;2024-02-21T06:52:05;9.64;81.55
85532;SHT35;75970;52.122;5.406;2024-02-21T06:54:32;9.63;81.68
85532;SHT35;75970;52.122;5.406;2024-02-21T06:57:00;9.64;81.53
85532;SHT35;75970;52.122;5.406;2024-02-21T06:59:27;9.63;81.59
85532;SHT35;75970;52.122;5.406;2024-02-21T07:01:55;9.61;81.68
85532;SHT35;75970;52.122;5.406;2024-02-21T07:04:24;9.60;81.64
85532;SHT35;75970;52.122;5.406;2024-02-21T07:06:52;9.60;81.47
85532;SHT35;75970;52.122;5.406;2024-02-21T07:09:19;9.57;81.73
85532;SHT35;75970;52.122;5.406;2024-02-21T07:11:47;9.57;81.60
85532;SHT35;75970;52.122;5.406;2024-02-21T07:14:15;9.57;81.74
85532;SHT35;75970;52.122;5.406;2024-02-21T07:16:42;9.57;81.88
85532;SHT35;75970;52.122;5.406;2024-02-21T07:19:09;9.56;81.80
85532;SHT35;75970;52.122;5.406;2024-02-21T07:21:37;9.57;81.72
85532;SHT35;75970;52.122;5.406;2024-02-21T07:24:05;9.58;81.74
85532;SHT35;75970;52.122;5.406;2024-02-21T07:26:32;9.57;81.68
85532;SHT35;75970;52.122;5.406;2024-02-21T07:28:59;9.57;81.63
85532;SHT35;75970;52.122;5.406;2024-02-21T07:31:27;9.57;81.71
85532;SHT35;75970;52.122;5.406;2024-02-21T07:33:54;9.56;81.54
85532;SHT35;75970;52.122;5.406;2024-02-21T07:36:39;9.56;81.58
85532;SHT35;75970;52.122;5.406;2024-02-21T07:39:06;9.56;81.55
85532;SHT35;75970;52.122;5.406;2024-02-21T07:41:34;9.55;81.38
85532;SHT35;75970;52.122;5.406;2024-02-21T07:44:01;9.51;81.71
85532;SHT35;75970;52.122;5.406;2024-02-21T07:46:30;9.52;81.92
85532;SHT35;75970;52.122;5.406;2024-02-21T07:48:57;9.54;81.82
85532;SHT35;75970;52.122;5.406;2024-02-21T07:51:27;9.59;81.59
85532;SHT35;75970;52.122;5.406;2024-02-21T07:53:55;9.60;81.38
85532;SHT35;75970;52.122;5.406;2024-02-21T07:56:22;9.65;81.18
85532;SHT35;75970;52.122;5.406;2024-02-21T07:58:49;9.65;81.26
85532;SHT35;75970;52.122;5.406;2024-02-21T08:01:21;9.67;81.08
85532;SHT35;75970;52.122;5.406;2024-02-21T08:03:49;9.69;81.12
85532;SHT35;75970;52.122;5.406;2024-02-21T08:06:16;9.71;80.96
85532;SHT35;75970;52.122;5.406;2024-02-21T08:08:43;9.73;81.17
85532;SHT35;75970;52.122;5.406;2024-02-21T08:11:10;9.79;80.39
85532;SHT35;75970;52.122;5.406;2024-02-21T08:13:38;9.80;80.41
85532;SHT35;75970;52.122;5.406;2024-02-21T08:16:05;9.75;80.64
85532;SHT35;75970;52.122;5.406;2024-02-21T08:18:33;9.78;80.53
85532;SHT35;75970;52.122;5.406;2024-02-21T08:21:03;9.80;80.56
85532;SHT35;75970;52.122;5.406;2024-02-21T08:23:31;9.83;80.53
85532;SHT35;75970;52.122;5.406;2024-02-21T08:25:58;9.86;80.37
85532;SHT35;75970;52.122;5.406;2024-02-21T08:28:26;9.90;80.34
85532;SHT35;75970;52.122;5.406;2024-02-21T08:30:57;9.96;80.49
85532;SHT35;75970;52.122;5.406;2024-02-21T08:33:24;10.01;79.84
85532;SHT35;75970;52.122;5.406;2024-02-21T08:35:52;10.02;79.74
85532;SHT35;75970;52.122;5.406;2024-02-21T08:38:19;10.05;79.72
85532;SHT35;75970;52.122;5.406;2024-02-21T08:40:46;10.07;79.32
85532;SHT35;75970;52.122;5.406;2024-02-21T08:43:14;10.07;79.25
85532;SHT35;75970;52.122;5.406;2024-02-21T08:45:41;10.08;79.66
85532;SHT35;75970;52.122;5.406;2024-02-21T08:48:08;10.11;79.48
85532;SHT35;75970;52.122;5.406;2024-02-21T08:50:35;10.14;79.11
85532;SHT35;75970;52.122;5.406;2024-02-21T08:53:03;10.15;79.09
85532;SHT35;75970;52.122;5.406;2024-02-21T08:55:30;10.16;79.19
85532;SHT35;75970;52.122;5.406;2024-02-21T08:57:58;10.19;79.28
85532;SHT35;75970;52.122;5.406;2024-02-21T09:00:25;10.25;79.05
85532;SHT35;75970;52.122;5.406;2024-02-21T09:02:55;10.29;78.97
85532;SHT35;75970;52.122;5.406;2024-02-21T09:05:23;10.32;78.40
85532;SHT35;75970;52.122;5.406;2024-02-21T09:07:52;10.32;78.58
85532;SHT35;75970;52.122;5.406;2024-02-21T09:10:20;10.34;78.46
85532;SHT35;75970;52.122;5.406;2024-02-21T09:12:48;10.37;78.22
85532;SHT35;75970;52.122;5.406;2024-02-21T09:15:15;10.42;78.00
85532;SHT35;75970;52.122;5.406;2024-02-21T09:17:42;10.44;77.74
85532;SHT35;75970;52.122;5.406;2024-02-21T09:20:09;10.47;77.77
85532;SHT35;75970;52.122;5.406;2024-02-21T09:22:39;10.52;77.13
85532;SHT35;75970;52.122;5.406;2024-02-21T09:25:07;10.55;77.48
85532;SHT35;75970;52.122;5.406;2024-02-21T09:27:34;10.57;77.02
85532;SHT35;75970;52.122;5.406;2024-02-21T09:30:02;10.57;76.64
85532;SHT35;75970;52.122;5.406;2024-02-21T09:32:31;10.55;76.73
85532;SHT35;75970;52.122;5.406;2024-02-21T09:35:02;10.59;76.52
85532;SHT35;75970;52.122;5.406;2024-02-21T09:37:29;10.55;76.51
85532;SHT35;75970;52.122;5.406;2024-02-21T09:39:57;10.56;77.30
85532;SHT35;75970;52.122;5.406;2024-02-21T09:42:40;10.59;77.02
85532;SHT35;75970;52.122;5.406;2024-02-21T09:45:20;10.62;76.97
85532;SHT35;75970;52.122;5.406;2024-02-21T09:50:49;10.71;76.04
85532;SHT35;75970;52.122;5.406;2024-02-21T09:53:18;10.71;76.04
85532;SHT35;75970;52.122;5.406;2024-02-21T09:55:48;10.75;75.70
85532;SHT35;75970;52.122;5.406;2024-02-21T09:58:15;10.76;75.46
85532;SHT35;75970;52.122;5.406;2024-02-21T10:00:43;10.76;75.82
85532;SHT35;75970;52.122;5.406;2024-02-21T10:03:10;10.78;75.59
85532;SHT35;75970;52.122;5.406;2024-02-21T10:05:38;10.81;76.14
85532;SHT35;75970;52.122;5.406;2024-02-21T10:08:06;10.85;75.64
85532;SHT35;75970;52.122;5.406;2024-02-21T10:10:43;10.90;75.71
85532;SHT35;75970;52.122;5.406;2024-02-21T10:13:25;10.95;75.48
85532;SHT35;75970;52.122;5.406;2024-02-21T10:16:08;10.98;74.76
85532;SHT35;75970;52.122;5.406;2024-02-21T10:18:36;11.02;74.39
85532;SHT35;75970;52.122;5.406;2024-02-21T10:21:06;11.04;74.07
85532;SHT35;75970;52.122;5.406;2024-02-21T10:23:43;10.98;74.10
85532;SHT35;75970;52.122;5.406;2024-02-21T10:26:11;11.02;74.53
85532;SHT35;75970;52.122;5.406;2024-02-21T10:28:39;11.07;75.18
85532;SHT35;75970;52.122;5.406;2024-02-21T10:31:09;11.15;74.36
85532;SHT35;75970;52.122;5.406;2024-02-21T10:33:37;11.21;74.23
85532;SHT35;75970;52.122;5.406;2024-02-21T10:36:08;11.27;73.82
85532;SHT35;75970;52.122;5.406;2024-02-21T10:38:37;11.32;74.23
85532;SHT35;75970;52.122;5.406;2024-02-21T10:41:05;11.40;73.91
85532;SHT35;75970;52.122;5.406;2024-02-21T10:43:40;11.44;73.89
85532;SHT35;75970;52.122;5.406;2024-02-21T10:46:08;11.45;73.07
85532;SHT35;75970;52.122;5.406;2024-02-21T10:48:43;11.41;73.33
85532;SHT35;75970;52.122;5.406;2024-02-21T10:51:19;11.44;73.40
85532;SHT35;75970;52.122;5.406;2024-02-21T10:54:41;11.40;73.15
85532;SHT35;75970;52.122;5.406;2024-02-21T10:57:12;11.41;73.52
85532;SHT35;75970;52.122;5.406;2024-02-21T10:59:40;11.37;73.86
85532;SHT35;75970;52.122;5.406;2024-02-21T11:02:08;11.36;73.58
85532;SHT35;75970;52.122;5.406;2024-02-21T11:04:37;11.35;73.95
85532;SHT35;75970;52.122;5.406;2024-02-21T11:07:05;11.35;74.11
85532;SHT35;75970;52.122;5.406;2024-02-21T11:09:37;11.40;73.96
85532;SHT35;75970;52.122;5.406;2024-02-21T11:12:06;11.44;74.64
85532;SHT35;75970;52.122;5.406;2024-02-21T11:14:34;11.49;73.99
85532;SHT35;75970;52.122;5.406;2024-02-21T11:17:19;11.48;73.83
85532;SHT35;75970;52.122;5.406;2024-02-21T11:19:48;11.46;73.84
85532;SHT35;75970;52.122;5.406;2024-02-21T11:22:17;11.39;73.52
85532;SHT35;75970;52.122;5.406;2024-02-21T11:24:46;11.31;74.12
85532;SHT35;75970;52.122;5.406;2024-02-21T11:27:19;11.25;73.92
85532;SHT35;75970;52.122;5.406;2024-02-21T11:29:56;11.18;74.03
85532;SHT35;75970;52.122;5.406;2024-02-21T11:32:25;11.12;74.39
85532;SHT35;75970;52.122;5.406;2024-02-21T11:37:25;11.00;74.86
85532;SHT35;75970;52.122;5.406;2024-02-21T11:39:57;10.99;74.51
85532;SHT35;75970;52.122;5.406;2024-02-21T11:42:26;10.89;75.04
85532;SHT35;75970;52.122;5.406;2024-02-21T11:44:54;10.76;75.84
85532;SHT35;75970;52.122;5.406;2024-02-21T11:47:24;10.73;75.99
85532;SHT35;75970;52.122;5.406;2024-02-21T11:49:51;10.71;76.27
85532;SHT35;75970;52.122;5.406;2024-02-21T11:52:23;10.68;76.19
85532;SHT35;75970;52.122;5.406;2024-02-21T11:54:55;10.69;76.24
85532;SHT35;75970;52.122;5.406;2024-02-21T11:57:25;10.70;76.35
85532;SHT35;75970;52.122;5.406;2024-02-21T11:59:52;10.70;76.54
85532;SHT35;75970;52.122;5.406;2024-02-21T12:02:26;10.76;76.60
85532;SHT35;75970;52.122;5.406;2024-02-21T12:04:54;10.88;76.28
85532;SHT35;75970;52.122;5.406;2024-02-21T12:07:22;11.03;76.09
85532;SHT35;75970;52.122;5.406;2024-02-21T12:09:52;11.13;76.12
85532;SHT35;75970;52.122;5.406;2024-02-21T12:12:20;11.30;76.12
85532;SHT35;75970;52.122;5.406;2024-02-21T12:14:55;11.45;75.42
85532;SHT35;75970;52.122;5.406;2024-02-21T12:17:22;11.62;73.75
85532;SHT35;75970;52.122;5.406;2024-02-21T12:19:50;11.78;73.48
85532;SHT35;75970;52.122;5.406;2024-02-21T12:22:19;11.89;72.73
85532;SHT35;75970;52.122;5.406;2024-02-21T12:24:46;11.94;72.15
85532;SHT35;75970;52.122;5.406;2024-02-21T12:27:15;11.99;72.33
85532;SHT35;75970;52.122;5.406;2024-02-21T12:29:42;12.07;72.15
85532;SHT35;75970;52.122;5.406;2024-02-21T12:32:10;12.12;71.53
85532;SHT35;75970;52.122;5.406;2024-02-21T12:34:37;12.16;71.58
85532;SHT35;75970;52.122;5.406;2024-02-21T12:37:19;12.21;70.79
85532;SHT35;75970;52.122;5.406;2024-02-21T12:39:48;12.21;70.68
85532;SHT35;75970;52.122;5.406;2024-02-21T12:42:15;12.16;70.35
85532;SHT35;75970;52.122;5.406;2024-02-21T12:44:42;12.04;70.44
85532;SHT35;75970;52.122;5.406;2024-02-21T12:47:10;12.03;71.08
85532;SHT35;75970;52.122;5.406;2024-02-21T12:49:37;12.03;71.01
85532;SHT35;75970;52.122;5.406;2024-02-21T12:52:11;12.04;71.17
85532;SHT35;75970;52.122;5.406;2024-02-21T12:54:38;12.08;71.14
85532;SHT35;75970;52.122;5.406;2024-02-21T12:57:05;12.09;71.33
85532;SHT35;75970;52.122;5.406;2024-02-21T12:59:32;12.12;70.66
85532;SHT35;75970;52.122;5.406;2024-02-21T13:02:00;12.11;71.26
85532;SHT35;75970;52.122;5.406;2024-02-21T13:04:27;12.09;71.57
85532;SHT35;75970;52.122;5.406;2024-02-21T13:06:55;12.12;71.49
85532;SHT35;75970;52.122;5.406;2024-02-21T13:09:24;12.14;71.21
85532;SHT35;75970;52.122;5.406;2024-02-21T13:11:54;12.17;70.99
85532;SHT35;75970;52.122;5.406;2024-02-21T13:14:21;12.20;71.11
85532;SHT35;75970;52.122;5.406;2024-02-21T13:16:49;12.21;70.48
85532;SHT35;75970;52.122;5.406;2024-02-21T13:19:17;12.18;70.47
85532;SHT35;75970;52.122;5.406;2024-02-21T13:21:45;12.21;70.51
85532;SHT35;75970;52.122;5.406;2024-02-21T13:24:13;12.22;70.02
85532;SHT35;75970;52.122;5.406;2024-02-21T13:26:40;12.22;70.11
85532;SHT35;75970;52.122;5.406;2024-02-21T13:29:07;12.21;70.19
85532;SHT35;75970;52.122;5.406;2024-02-21T13:31:34;12.19;69.93
85532;SHT35;75970;52.122;5.406;2024-02-21T13:34:02;12.18;69.57
85532;SHT35;75970;52.122;5.406;2024-02-21T13:36:30;12.14;69.31
85532;SHT35;75970;52.122;5.406;2024-02-21T13:38:58;12.08;69.27
85532;SHT35;75970;52.122;5.406;2024-02-21T13:41:25;11.97;70.06
85532;SHT35;75970;52.122;5.406;2024-02-21T13:43:52;11.91;70.39
85532;SHT35;75970;52.122;5.406;2024-02-21T13:46:19;11.87;70.59
85532;SHT35;75970;52.122;5.406;2024-02-21T13:48:47;11.85;70.76
85532;SHT35;75970;52.122;5.406;2024-02-21T13:51:14;11.81;70.99
85532;SHT35;75970;52.122;5.406;2024-02-21T13:53:43;11.78;71.18
85532;SHT35;75970;52.122;5.406;2024-02-21T13:56:10;11.75;70.86
85532;SHT35;75970;52.122;5.406;2024-02-21T13:58:38;11.72;71.43
85532;SHT35;75970;52.122;5.406;2024-02-21T14:01:05;11.72;71.11
85532;SHT35;75970;52.122;5.406;2024-02-21T14:03:32;11.68;71.18
85532;SHT35;75970;52.122;5.406;2024-02-21T14:05:59;11.64;70.87
85532;SHT35;75970;52.122;5.406;2024-02-21T14:08:27;11.65;71.15
85532;SHT35;75970;52.122;5.406;2024-02-21T14:10:54;11.63;70.73
85532;SHT35;75970;52.122;5.406;2024-02-21T14:13:23;11.65;70.52
85532;SHT35;75970;52.122;5.406;2024-02-21T14:15:50;11.63;70.70
85532;SHT35;75970;52.122;5.406;2024-02-21T14:18:17;11.60;71.09
85532;SHT35;75970;52.122;5.406;2024-02-21T14:20:45;11.59;71.32
85532;SHT35;75970;52.122;5.406;2024-02-21T14:23:14;11.57;71.00
85532;SHT35;75970;52.122;5.406;2024-02-21T14:25:41;11.57;70.89
85532;SHT35;75970;52.122;5.406;2024-02-21T14:28:09;11.57;70.93
85532;SHT35;75970;52.122;5.406;2024-02-21T14:30:36;11.58;70.51
85532;SHT35;75970;52.122;5.406;2024-02-21T14:33:03;11.59;70.81
85532;SHT35;75970;52.122;5.406;2024-02-21T14:35:31;11.60;70.38
85532;SHT35;75970;52.122;5.406;2024-02-21T14:37:58;11.60;70.53
85532;SHT35;75970;52.122;5.406;2024-02-21T14:40:28;11.57;70.77
85532;SHT35;75970;52.122;5.406;2024-02-21T14:42:57;11.56;70.62
85532;SHT35;75970;52.122;5.406;2024-02-21T14:45:24;11.54;71.10
85532;SHT35;75970;52.122;5.406;2024-02-21T14:47:51;11.54;71.14
85532;SHT35;75970;52.122;5.406;2024-02-21T14:50:19;11.55;71.89
85532;SHT35;75970;52.122;5.406;2024-02-21T14:52:46;11.57;71.80
85532;SHT35;75970;52.122;5.406;2024-02-21T14:55:14;11.53;72.28
85532;SHT35;75970;52.122;5.406;2024-02-21T14:57:41;11.52;71.97
85532;SHT35;75970;52.122;5.406;2024-02-21T15:00:10;11.51;71.86
85532;SHT35;75970;52.122;5.406;2024-02-21T15:02:38;11.43;72.57
85532;SHT35;75970;52.122;5.406;2024-02-21T15:05:06;11.39;72.82
85532;SHT35;75970;52.122;5.406;2024-02-21T15:07:33;11.37;73.21
85532;SHT35;75970;52.122;5.406;2024-02-21T15:10:01;11.32;73.86
85532;SHT35;75970;52.122;5.406;2024-02-21T15:12:30;11.29;74.11
85532;SHT35;75970;52.122;5.406;2024-02-21T15:14:58;11.24;74.40
85532;SHT35;75970;52.122;5.406;2024-02-21T15:17:26;11.18;75.23
85532;SHT35;75970;52.122;5.406;2024-02-21T15:19:53;11.11;75.04
85532;SHT35;75970;52.122;5.406;2024-02-21T15:22:22;11.00;76.09
85532;SHT35;75970;52.122;5.406;2024-02-21T15:24:50;10.90;76.35
85532;SHT35;75970;52.122;5.406;2024-02-21T15:27:18;10.76;77.31
85532;SHT35;75970;52.122;5.406;2024-02-21T15:29:45;10.71;77.64
85532;SHT35;75970;52.122;5.406;2024-02-21T15:32:12;10.63;78.04
85532;SHT35;75970;52.122;5.406;2024-02-21T15:34:40;10.45;79.27
85532;SHT35;75970;52.122;5.406;2024-02-21T15:37:07;10.33;79.99
85532;SHT35;75970;52.122;5.406;2024-02-21T15:39:35;10.28;79.98
85532;SHT35;75970;52.122;5.406;2024-02-21T15:42:03;10.16;80.67
85532;SHT35;75970;52.122;5.406;2024-02-21T15:44:30;10.11;80.99
85532;SHT35;75970;52.122;5.406;2024-02-21T15:46:57;10.05;81.58
85532;SHT35;75970;52.122;5.406;2024-02-21T15:49:26;9.97;82.29